Terminal Aerodrome Forecast
Issued by NWS

Home | Current Version | Previous Version | Text Only | Print | Product List | Glossary On
Versions: 1 2 3 4 5 6 7 8 9 10 11 12
000
FTUS45 KABQ 172300
TAFROW
TAF
KROW 172326Z 1800/1824 27016G24KT P6SM SKC
     FM180200 24007KT P6SM SKC
     FM180900 32006KT P6SM FEW120
     FM182100 25015G25KT P6SM BKN120=

USA.gov is the U.S. government's official web portal to all federal, state and local government web resources and services.